Time;durP1;ratioP1;P1;durP2;ratioP2;P2;SDS_P1;SDS_P2;PMS_P1;PMS_P2;Temp;Humidity;BMP_temperature;BMP_pressure;BME280_temperature;BME280_humidity;BME280_pressure;Samples;Min_cycle;Max_cycle;Signal;HPM_P1;HPM_P2
2021/10/19 00:00:53;;;;;;;18.08;12.95;;;;;;;16.70;71.72;101865.34;4931212;28;20050;-71
2021/10/19 00:03:18;;;;;;;20.55;12.73;;;;;;;16.65;71.56;101867.94;4935380;28;20985;-72
2021/10/19 00:05:44;;;;;;;19.98;13.07;;;;;;;16.65;71.95;101854.78;4898083;28;20471;-69
2021/10/19 00:08:09;;;;;;;15.70;11.45;;;;;;;16.78;71.73;101860.97;4940453;28;20081;-70
2021/10/19 00:10:34;;;;;;;18.73;12.35;;;;;;;16.76;71.67;101858.34;4929929;28;21429;-70
2021/10/19 00:13:00;;;;;;;20.40;12.15;;;;;;;16.76;72.07;101865.38;4935422;28;20132;-72
2021/10/19 00:15:25;;;;;;;18.10;11.88;;;;;;;16.76;72.09;101865.38;4919144;28;20408;-71
2021/10/19 00:17:50;;;;;;;16.63;11.52;;;;;;;16.80;71.95;101864.50;4925187;28;20423;-71
2021/10/19 00:20:17;;;;;;;18.42;12.13;;;;;;;16.82;72.05;101862.75;4937443;28;20078;-70
2021/10/19 00:22:43;;;;;;;18.83;12.00;;;;;;;16.86;72.02;101857.50;4927982;28;20058;-70
2021/10/19 00:25:10;;;;;;;17.77;11.65;;;;;;;16.86;72.21;101856.63;4923725;28;20046;-71
2021/10/19 00:27:37;;;;;;;17.15;11.65;;;;;;;16.90;71.85;101839.94;4905673;28;20031;-64
2021/10/19 00:30:05;;;;;;;16.95;10.60;;;;;;;16.90;72.09;101840.81;4937553;28;20135;-70
2021/10/19 00:32:31;;;;;;;15.90;10.93;;;;;;;16.86;72.25;101839.06;4912458;28;20038;-70
2021/10/19 00:34:56;;;;;;;18.55;11.32;;;;;;;16.91;72.35;101845.22;4932012;28;20543;-70
2021/10/19 00:37:22;;;;;;;17.10;11.05;;;;;;;16.90;72.74;101845.22;4937631;28;20044;-70
2021/10/19 00:39:47;;;;;;;17.40;11.23;;;;;;;16.85;73.19;101845.19;4925980;28;20039;-69
2021/10/19 00:42:12;;;;;;;17.83;11.85;;;;;;;16.83;73.36;101849.56;4935233;28;20093;-70
2021/10/19 00:44:38;;;;;;;18.83;12.25;;;;;;;16.74;74.22;101843.41;4940621;28;20544;-69
2021/10/19 00:47:03;;;;;;;21.33;12.88;;;;;;;16.70;74.48;101837.28;4914075;28;20134;-69
2021/10/19 00:49:29;;;;;;;23.50;13.38;;;;;;;16.72;74.66;101831.97;4932173;28;20051;-69
2021/10/19 00:51:54;;;;;;;20.90;13.27;;;;;;;16.61;75.13;101831.94;4917494;28;20507;-69
2021/10/19 00:54:23;;;;;;;22.63;14.35;;;;;;;16.63;75.11;101828.47;4930509;28;20933;-69
2021/10/19 00:56:52;;;;;;;22.48;14.50;;;;;;;16.60;75.58;101824.94;4916844;28;20046;-70
2021/10/19 00:59:17;;;;;;;22.83;14.52;;;;;;;16.59;75.46;101821.41;4917708;28;20563;-69
2021/10/19 01:01:43;;;;;;;23.80;14.48;;;;;;;16.55;75.72;101824.88;4927458;28;20073;-70
2021/10/19 01:04:08;;;;;;;28.63;16.25;;;;;;;16.52;76.01;101817.00;4915632;28;20710;-69
2021/10/19 01:06:33;;;;;;;27.08;15.52;;;;;;;16.54;76.00;101802.06;4933897;28;20059;-69
2021/10/19 01:09:00;;;;;;;27.80;16.15;;;;;;;16.51;76.19;101804.69;4941200;28;20555;-69
2021/10/19 01:11:25;;;;;;;25.75;15.80;;;;;;;16.48;76.46;101801.16;4939603;28;20219;-69
2021/10/19 01:13:51;;;;;;;26.02;15.63;;;;;;;16.49;76.58;101801.16;4914043;28;20038;-69
2021/10/19 01:16:16;;;;;;;27.73;15.82;;;;;;;16.50;76.44;101792.41;4935012;28;20058;-71
2021/10/19 01:18:43;;;;;;;26.30;16.73;;;;;;;16.48;76.62;101799.41;4931319;28;20370;-69
2021/10/19 01:21:09;;;;;;;26.95;15.68;;;;;;;16.44;77.06;101802.03;4919707;28;20131;-69
2021/10/19 01:23:36;;;;;;;28.13;16.15;;;;;;;16.39;77.08;101788.84;4929681;28;20043;-70
2021/10/19 01:26:04;;;;;;;36.70;15.43;;;;;;;16.46;77.11;101785.38;4926708;28;20054;-69
2021/10/19 01:28:31;;;;;;;29.60;16.08;;;;;;;16.46;77.22;101785.38;4933244;28;20291;-70
2021/10/19 01:30:59;;;;;;;30.25;15.73;;;;;;;16.45;77.27;101772.22;4931419;28;20497;-69
2021/10/19 01:33:25;;;;;;;29.80;16.55;;;;;;;16.46;77.15;101776.59;4920498;28;20066;-69
2021/10/19 01:35:51;;;;;;;30.02;16.75;;;;;;;16.47;77.47;101766.06;4929362;28;20046;-70
2021/10/19 01:38:23;;;;;;;29.65;16.88;;;;;;;16.51;77.25;101769.59;4925572;28;20500;-69
2021/10/19 01:40:49;;;;;;;30.63;16.15;;;;;;;16.50;77.33;101762.56;4911937;28;20435;-70
2021/10/19 01:43:18;;;;;;;30.08;16.52;;;;;;;16.50;77.35;101766.06;4914493;28;20038;-70
2021/10/19 01:45:44;;;;;;;32.72;16.77;;;;;;;16.55;77.40;101769.59;4922034;28;20031;-70
2021/10/19 01:48:10;;;;;;;32.40;17.30;;;;;;;16.51;77.55;101775.75;4930653;28;20134;-70
2021/10/19 01:50:37;;;;;;;33.10;16.83;;;;;;;16.52;77.75;101766.09;4930910;28;20043;-70
2021/10/19 01:53:05;;;;;;;29.35;15.70;;;;;;;16.59;77.67;101766.13;4936534;28;20101;-70
2021/10/19 01:55:30;;;;;;;31.35;16.55;;;;;;;16.59;77.56;101765.22;4924081;28;20708;-70
2021/10/19 01:57:56;;;;;;;30.90;17.33;;;;;;;16.59;77.60;101752.97;4921226;28;20149;-70
2021/10/19 02:00:21;;;;;;;28.35;16.13;;;;;;;16.59;77.46;101755.59;4933322;28;20058;-70
2021/10/19 02:02:46;;;;;;;32.65;17.20;;;;;;;16.64;77.66;101739.84;4936443;28;20049;-71
2021/10/19 02:05:12;;;;;;;32.95;17.17;;;;;;;16.65;77.39;101738.94;4930671;28;20047;-70
2021/10/19 02:07:38;;;;;;;32.28;17.70;;;;;;;16.66;77.50;101731.91;4918941;28;20089;-63
2021/10/19 02:10:05;;;;;;;30.65;17.15;;;;;;;16.69;77.53;101737.19;4924547;28;20205;-70
2021/10/19 02:12:31;;;;;;;34.13;17.23;;;;;;;16.70;77.60;101737.22;4926362;28;20507;-70
2021/10/19 02:14:56;;;;;;;30.92;16.92;;;;;;;16.73;77.79;101731.94;4922955;28;20042;-70
2021/10/19 02:17:22;;;;;;;26.80;16.27;;;;;;;16.75;77.76;101743.34;4932384;28;20074;-70
2021/10/19 02:19:47;;;;;;;32.38;17.70;;;;;;;16.75;77.55;101739.84;4926231;28;20449;-72
2021/10/19 02:22:13;;;;;;;30.92;16.85;;;;;;;16.79;77.58;101742.47;4937469;28;20118;-71
2021/10/19 02:24:38;;;;;;;32.53;17.80;;;;;;;16.71;77.84;101736.31;4924887;28;20062;-71
2021/10/19 02:27:03;;;;;;;30.05;16.92;;;;;;;16.72;78.04;101727.53;4937840;28;20592;-69
2021/10/19 02:29:29;;;;;;;33.85;17.38;;;;;;;16.72;77.96;101724.91;4926570;28;20635;-69
2021/10/19 02:31:54;;;;;;;32.42;17.92;;;;;;;16.79;77.45;101725.78;4918174;28;20396;-70
2021/10/19 02:34:22;;;;;;;33.70;18.17;;;;;;;16.82;77.71;101734.59;4930871;28;20042;-70
2021/10/19 02:36:47;;;;;;;30.15;17.48;;;;;;;16.84;77.62;101735.47;4915399;28;20050;-70
2021/10/19 02:39:12;;;;;;;30.42;17.55;;;;;;;16.90;77.59;101737.22;4935108;28;20181;-70
2021/10/19 02:41:39;;;;;;;32.50;18.50;;;;;;;16.91;77.47;101726.69;4923644;28;20047;-69
2021/10/19 02:44:05;;;;;;;32.17;18.60;;;;;;;16.93;77.51;101724.94;4935786;28;20083;-70
2021/10/19 02:46:34;;;;;;;27.52;16.27;;;;;;;16.93;77.43;101726.69;4928075;28;20126;-70
2021/10/19 02:49:00;;;;;;;36.30;18.77;;;;;;;16.93;77.35;101716.16;4928797;28;20572;-71
2021/10/19 02:51:26;;;;;;;34.25;18.40;;;;;;;16.95;77.57;101709.16;4927313;28;20542;-70
2021/10/19 02:53:53;;;;;;;36.03;19.25;;;;;;;16.87;77.54;101705.63;4923422;28;20488;-70
2021/10/19 02:56:18;;;;;;;37.35;19.58;;;;;;;16.85;77.76;101697.72;4924369;28;20716;-69
2021/10/19 02:58:43;;;;;;;37.10;19.60;;;;;;;16.87;77.71;101688.06;4931905;28;20671;-69
2021/10/19 03:01:09;;;;;;;37.28;19.10;;;;;;;16.86;77.59;101678.41;4924380;28;20034;-70
2021/10/19 03:03:35;;;;;;;34.05;17.55;;;;;;;16.93;77.20;101682.81;4925854;28;20082;-69
2021/10/19 03:06:00;;;;;;;36.88;19.13;;;;;;;16.87;77.56;101685.44;4926844;28;22226;-71
2021/10/19 03:08:26;;;;;;;35.53;18.85;;;;;;;16.87;77.77;101682.81;4913131;28;20611;-71
2021/10/19 03:10:51;;;;;;;33.90;18.38;;;;;;;16.87;77.87;101684.56;4932605;28;20415;-70
2021/10/19 03:13:17;;;;;;;36.13;18.30;;;;;;;16.86;77.88;101677.53;4921392;28;20054;-70
2021/10/19 03:15:42;;;;;;;39.55;18.98;;;;;;;16.88;77.92;101673.16;4919231;28;20399;-70
2021/10/19 03:18:08;;;;;;;37.92;18.95;;;;;;;16.90;77.97;101682.78;4925393;28;20138;-70
2021/10/19 03:20:33;;;;;;;34.75;18.33;;;;;;;16.93;77.79;101676.66;4934364;28;20146;-71
2021/10/19 03:22:59;;;;;;;35.13;18.95;;;;;;;16.95;77.74;101665.25;4929663;28;20054;-70
2021/10/19 03:25:25;;;;;;;33.90;17.80;;;;;;;16.96;77.68;101669.63;4926477;28;20059;-69
2021/10/19 03:27:50;;;;;;;35.67;19.13;;;;;;;16.95;77.47;101681.06;4922639;28;20641;-70
2021/10/19 03:30:15;;;;;;;34.13;18.45;;;;;;;16.93;77.99;101674.91;4930223;28;20047;-70
2021/10/19 03:32:41;;;;;;;36.22;18.73;;;;;;;16.95;78.01;101677.53;4924670;28;20039;-70
2021/10/19 03:35:07;;;;;;;35.85;18.70;;;;;;;16.96;77.98;101687.19;4935501;28;20038;-70
2021/10/19 03:37:34;;;;;;;34.25;18.35;;;;;;;16.94;77.92;101689.84;4909373;28;20051;-70
2021/10/19 03:39:59;;;;;;;36.25;18.10;;;;;;;16.97;78.06;101687.19;4922929;28;20559;-69
2021/10/19 03:42:25;;;;;;;33.03;17.80;;;;;;;17.01;77.80;101685.44;4934433;28;20043;-69
2021/10/19 03:44:50;;;;;;;33.92;18.13;;;;;;;16.98;77.77;101683.69;4899904;28;20049;-71
2021/10/19 03:47:16;;;;;;;30.85;17.65;;;;;;;16.98;78.01;101688.06;4916548;28;20480;-69
2021/10/19 03:49:42;;;;;;;34.97;17.60;;;;;;;16.98;77.93;101690.69;4914990;28;20400;-70
2021/10/19 03:52:07;;;;;;;33.08;17.23;;;;;;;17.02;77.88;101692.44;4935042;28;20124;-70
2021/10/19 03:54:32;;;;;;;35.83;18.33;;;;;;;16.99;77.96;101688.06;4924102;28;20474;-70
2021/10/19 03:56:58;;;;;;;32.35;17.23;;;;;;;17.01;77.99;101696.88;4926377;28;20051;-69
2021/10/19 03:59:24;;;;;;;34.92;17.77;;;;;;;16.98;78.15;101688.06;4930564;28;20412;-71
2021/10/19 04:01:49;;;;;;;34.00;16.67;;;;;;;17.03;77.92;101681.91;4923826;28;20050;-70
2021/10/19 04:04:14;;;;;;;36.25;17.50;;;;;;;16.95;78.41;101690.72;4930408;28;20211;-69
2021/10/19 04:06:40;;;;;;;37.38;18.27;;;;;;;16.94;78.89;101686.31;4920996;28;20051;-72
2021/10/19 04:09:09;;;;;;;42.83;16.52;;;;;;;16.97;78.58;101686.31;4928961;28;20031;-69
2021/10/19 04:11:35;;;;;;;33.40;17.02;;;;;;;16.96;78.50;101685.41;4930889;28;20047;-69
2021/10/19 04:14:00;;;;;;;33.00;16.55;;;;;;;17.01;78.42;101693.34;4919471;28;20055;-70
2021/10/19 04:16:26;;;;;;;34.33;16.58;;;;;;;17.03;78.43;101688.94;4930697;28;20086;-70
2021/10/19 04:18:51;;;;;;;32.45;15.75;;;;;;;17.04;78.37;101688.94;4925608;28;20051;-71
2021/10/19 04:21:17;;;;;;;31.50;15.45;;;;;;;17.05;78.46;101687.19;4932271;28;20141;-71
2021/10/19 04:23:42;;;;;;;30.70;15.10;;;;;;;17.00;78.96;101694.22;4924636;28;20364;-71
2021/10/19 04:26:07;;;;;;;28.08;14.45;;;;;;;17.11;78.65;101683.66;4913383;28;20050;-71
2021/10/19 04:28:33;;;;;;;31.20;15.63;;;;;;;17.14;78.38;101697.72;4928736;28;20051;-70
2021/10/19 04:30:58;;;;;;;23.60;12.38;;;;;;;17.17;78.27;101705.63;4929179;28;20051;-70
2021/10/19 04:33:24;;;;;;;25.70;13.75;;;;;;;17.17;78.73;101699.47;4932874;28;20073;-70
2021/10/19 04:35:49;;;;;;;22.92;13.35;;;;;;;17.10;78.88;101692.44;4918439;28;20054;-70
2021/10/19 04:38:14;;;;;;;24.00;13.40;;;;;;;17.15;78.33;101686.28;4933410;28;20105;-70
2021/10/19 04:40:40;;;;;;;21.42;12.32;;;;;;;17.17;78.51;101687.19;4930794;28;20093;-70
2021/10/19 04:43:05;;;;;;;25.23;13.20;;;;;;;17.20;78.57;101681.91;4915132;28;21394;-70
2021/10/19 04:45:31;;;;;;;25.70;13.52;;;;;;;17.20;78.50;101683.69;4913805;28;20146;-70
2021/10/19 04:47:57;;;;;;;24.05;12.98;;;;;;;17.21;78.67;101680.13;4920554;28;20043;-69
2021/10/19 04:50:23;;;;;;;24.08;13.88;;;;;;;17.23;78.37;101676.63;4911507;28;20531;-69
2021/10/19 04:52:48;;;;;;;28.27;14.35;;;;;;;17.23;78.55;101667.84;4929862;28;20551;-71
2021/10/19 04:55:13;;;;;;;29.55;15.27;;;;;;;17.20;78.70;101663.44;4935036;28;20609;-69
2021/10/19 04:57:39;;;;;;;28.85;14.75;;;;;;;17.21;78.83;101659.94;4925330;28;20035;-70
2021/10/19 05:00:05;;;;;;;31.77;16.30;;;;;;;17.14;79.04;101659.97;4924447;28;20343;-70
2021/10/19 05:02:30;;;;;;;30.30;15.90;;;;;;;17.20;78.70;101657.34;4937649;28;20559;-70
2021/10/19 05:04:56;;;;;;;36.05;17.00;;;;;;;17.24;78.67;101652.03;4931685;28;20130;-70
2021/10/19 05:07:21;;;;;;;35.55;17.63;;;;;;;17.24;78.83;101661.72;4930134;28;20487;-70
2021/10/19 05:09:46;;;;;;;36.97;18.35;;;;;;;17.26;78.66;101654.69;4915076;28;20046;-70
2021/10/19 05:12:12;;;;;;;37.85;17.70;;;;;;;17.30;78.73;101653.78;4924239;28;20169;-70
2021/10/19 05:14:37;;;;;;;39.03;18.67;;;;;;;17.27;78.56;101654.66;4916572;28;20077;-71
2021/10/19 05:17:03;;;;;;;42.45;19.90;;;;;;;17.26;79.03;101658.16;4927292;28;20054;-70
2021/10/19 05:19:28;;;;;;;47.53;21.05;;;;;;;17.33;78.73;101652.00;4914131;28;20458;-72
2021/10/19 05:21:53;;;;;;;46.15;20.83;;;;;;;17.35;78.69;101645.00;4920354;28;21250;-69
2021/10/19 05:24:19;;;;;;;46.88;20.63;;;;;;;17.35;78.83;101652.03;4915492;28;20880;-69
2021/10/19 05:26:46;;;;;;;46.55;21.77;;;;;;;17.38;78.64;101649.41;4932068;28;20043;-69
2021/10/19 05:29:11;;;;;;;49.60;22.23;;;;;;;17.40;78.56;101644.97;4921570;28;20068;-70
2021/10/19 05:31:36;;;;;;;52.53;22.27;;;;;;;17.24;79.22;101646.78;4928579;28;20078;-69
2021/10/19 05:34:02;;;;;;;58.03;23.70;;;;;;;17.31;79.04;101632.72;4927425;28;20042;-70
2021/10/19 05:36:27;;;;;;;59.47;24.15;;;;;;;17.41;78.86;101647.63;4939493;28;20042;-70
2021/10/19 05:38:53;;;;;;;57.28;24.33;;;;;;;17.44;78.93;101652.84;4929031;28;20077;-69
2021/10/19 05:41:19;;;;;;;59.28;24.35;;;;;;;17.45;78.77;101656.38;4931187;28;20046;-69
2021/10/19 05:43:45;;;;;;;64.13;25.58;;;;;;;17.43;78.91;101645.88;4919822;28;20039;-70
2021/10/19 05:46:14;;;;;;;66.63;25.85;;;;;;;17.45;78.86;101648.47;4933239;28;20269;-71
2021/10/19 05:48:39;;;;;;;66.63;25.60;;;;;;;17.47;79.06;101654.63;4931368;28;20542;-70
2021/10/19 05:51:04;;;;;;;67.03;24.75;;;;;;;17.43;79.29;101655.53;4917171;28;20050;-69
2021/10/19 05:53:30;;;;;;;70.72;25.48;;;;;;;17.29;79.84;101647.63;4932642;28;20129;-70
2021/10/19 05:55:55;;;;;;;72.70;25.85;;;;;;;17.40;79.78;101645.84;4922090;28;20251;-71
2021/10/19 05:58:21;;;;;;;51.40;22.58;;;;;;;17.56;79.26;101648.47;4926714;28;20039;-70
2021/10/19 06:00:46;;;;;;;57.67;24.27;;;;;;;17.53;79.32;101646.69;4931002;28;20404;-70
2021/10/19 06:03:12;;;;;;;50.20;22.45;;;;;;;17.60;79.00;101629.09;4929164;28;20046;-71
2021/10/19 06:05:37;;;;;;;49.67;21.63;;;;;;;17.63;78.76;101621.19;4913664;28;20039;-69
2021/10/19 06:08:03;;;;;;;51.97;22.15;;;;;;;17.62;78.98;101630.03;4916053;28;20169;-69
2021/10/19 06:10:28;;;;;;;57.08;23.23;;;;;;;17.57;79.11;101629.09;4927038;28;20076;-69
2021/10/19 06:12:53;;;;;;;53.60;21.85;;;;;;;17.59;79.15;101628.22;4935019;28;20046;-69
2021/10/19 06:15:20;;;;;;;56.17;22.60;;;;;;;17.65;78.88;101627.34;4924929;28;20043;-68
2021/10/19 06:17:45;;;;;;;58.70;22.55;;;;;;;17.68;79.10;101641.44;4928766;28;20066;-69
2021/10/19 06:20:14;;;;;;;44.70;20.88;;;;;;;17.72;78.93;101642.28;4934330;28;20030;-70
2021/10/19 06:22:39;;;;;;;56.78;22.20;;;;;;;17.67;78.95;101642.31;4928841;28;20081;-69
2021/10/19 06:25:06;;;;;;;49.83;22.00;;;;;;;17.75;78.78;101658.06;4925246;28;20106;-69
2021/10/19 06:27:33;;;;;;;50.13;21.88;;;;;;;17.74;79.11;101643.16;4925241;28;20046;-69
2021/10/19 06:29:58;;;;;;;55.78;22.45;;;;;;;17.74;78.88;101646.69;4920917;28;21269;-70
2021/10/19 06:32:24;;;;;;;54.80;23.17;;;;;;;17.74;78.98;101641.41;4930851;28;20039;-69
2021/10/19 06:34:49;;;;;;;58.42;23.20;;;;;;;17.73;79.11;101629.09;4933549;28;20608;-71
2021/10/19 06:37:14;;;;;;;57.67;22.55;;;;;;;17.72;79.18;101635.25;4921736;28;20054;-69
2021/10/19 06:39:40;;;;;;;60.25;23.08;;;;;;;17.76;79.17;101634.34;4922246;28;20042;-68
2021/10/19 06:42:05;;;;;;;53.60;22.25;;;;;;;17.80;79.09;101633.47;4928346;28;20071;-69
2021/10/19 06:44:30;;;;;;;53.35;21.92;;;;;;;17.86;78.69;101639.59;4924350;28;20049;-69
2021/10/19 06:46:56;;;;;;;43.80;20.33;;;;;;;17.83;79.05;101638.72;4932228;28;20504;-68
2021/10/19 06:49:21;;;;;;;50.90;22.35;;;;;;;17.85;79.12;101641.34;4907244;28;20521;-67
2021/10/19 06:51:46;;;;;;;60.25;23.15;;;;;;;17.86;78.94;101645.75;4924707;28;20043;-70
2021/10/19 06:54:12;;;;;;;51.17;22.33;;;;;;;17.86;79.15;101645.75;4929779;28;20046;-69
2021/10/19 06:56:37;;;;;;;49.15;20.95;;;;;;;17.89;79.06;101651.00;4915885;28;20576;-71
2021/10/19 06:59:02;;;;;;;50.33;20.48;;;;;;;17.93;78.86;101655.38;4928485;28;20367;-69
2021/10/19 07:01:28;;;;;;;53.45;20.95;;;;;;;17.78;79.30;101658.97;4928029;28;20488;-69
2021/10/19 07:03:53;;;;;;;53.83;22.00;;;;;;;17.86;79.17;101656.31;4926272;28;20607;-69
2021/10/19 07:06:18;;;;;;;38.15;18.83;;;;;;;17.95;79.11;101650.97;4926187;28;20149;-71
2021/10/19 07:08:44;;;;;;;50.42;20.10;;;;;;;17.95;78.99;101648.31;4934323;28;20034;-70
2021/10/19 07:11:09;;;;;;;40.55;19.52;;;;;;;18.00;78.99;101654.47;4920177;28;20189;-71
2021/10/19 07:13:35;;;;;;;46.85;20.27;;;;;;;17.95;79.29;101647.44;4923578;28;20043;-69
2021/10/19 07:16:01;;;;;;;46.97;20.05;;;;;;;17.96;79.25;101642.19;4921166;28;20059;-69
2021/10/19 07:18:26;;;;;;;52.65;20.63;;;;;;;18.03;79.24;101649.19;4931849;28;20041;-69
2021/10/19 07:20:53;;;;;;;52.63;20.60;;;;;;;18.08;78.95;101654.44;4929730;28;20046;-71
2021/10/19 07:23:19;;;;;;;49.13;20.05;;;;;;;18.10;79.04;101650.03;4926918;28;20046;-70
2021/10/19 07:25:45;;;;;;;46.08;20.63;;;;;;;18.09;79.39;101649.16;4895421;28;20054;-68
2021/10/19 07:28:10;;;;;;;49.22;19.75;;;;;;;18.13;79.03;101648.25;4927057;28;20042;-70
2021/10/19 07:30:36;;;;;;;46.13;19.13;;;;;;;18.19;79.20;101650.84;4933180;28;20042;-70
2021/10/19 07:33:01;;;;;;;43.05;18.67;;;;;;;18.21;79.25;101649.09;4927184;28;20035;-68
2021/10/19 07:35:27;;;;;;;40.50;17.20;;;;;;;18.19;79.24;101645.56;4912001;28;20818;-69
2021/10/19 07:37:52;;;;;;;40.22;18.13;;;;;;;18.27;79.10;101653.44;4909646;28;20108;-69
2021/10/19 07:40:20;;;;;;;39.53;17.17;;;;;;;18.33;79.04;101652.53;4932166;28;20050;-69
2021/10/19 07:42:46;;;;;;;41.25;17.75;;;;;;;18.37;79.07;101648.97;4924973;28;20031;-68
2021/10/19 07:45:12;;;;;;;39.13;16.08;;;;;;;18.29;79.16;101645.53;4901954;28;20423;-69
2021/10/19 07:47:39;;;;;;;34.83;16.45;;;;;;;18.39;78.92;101647.22;4912793;28;20736;-70
2021/10/19 07:50:05;;;;;;;37.70;17.67;;;;;;;18.28;79.50;101647.28;4935583;28;20121;-70
2021/10/19 07:52:30;;;;;;;32.22;15.98;;;;;;;18.32;79.30;101646.38;4920943;28;20475;-69
2021/10/19 07:54:56;;;;;;;33.72;16.42;;;;;;;18.35;79.19;101645.50;4923560;28;20102;-68
2021/10/19 07:57:21;;;;;;;33.70;16.52;;;;;;;18.34;79.21;101652.53;4903688;28;20142;-69
2021/10/19 07:59:46;;;;;;;26.67;14.77;;;;;;;18.44;78.93;101648.94;4928234;28;20051;-71
2021/10/19 08:02:12;;;;;;;29.25;15.23;;;;;;;18.45;79.15;101645.41;4911102;28;21066;-72
2021/10/19 08:04:37;;;;;;;30.08;15.05;;;;;;;18.47;79.07;101646.28;4925995;28;20101;-70
2021/10/19 08:07:03;;;;;;;21.88;13.65;;;;;;;18.51;79.12;101650.66;4921089;28;20081;-70
2021/10/19 08:09:28;;;;;;;20.58;12.95;;;;;;;18.50;78.95;101640.97;4928349;28;20047;-70
2021/10/19 08:11:53;;;;;;;25.52;14.38;;;;;;;18.49;79.12;101643.63;4911458;28;20027;-70
2021/10/19 08:14:19;;;;;;;26.00;14.20;;;;;;;18.51;79.05;101645.38;4914673;28;20046;-72
2021/10/19 08:16:44;;;;;;;22.67;13.45;;;;;;;18.52;79.06;101654.16;4930695;28;20460;-70
2021/10/19 08:19:10;;;;;;;30.70;14.65;;;;;;;18.47;79.12;101640.13;4932015;28;20180;-70
2021/10/19 08:21:35;;;;;;;26.92;14.50;;;;;;;18.48;78.98;101645.38;4930324;28;20043;-69
2021/10/19 08:24:01;;;;;;;25.00;14.07;;;;;;;18.53;79.05;101642.72;4935034;28;20038;-69
2021/10/19 08:26:30;;;;;;;26.40;14.55;;;;;;;18.55;79.03;101654.16;4926445;28;20104;-69
2021/10/19 08:29:01;;;;;;;28.30;15.50;;;;;;;18.56;79.08;101642.72;4917710;28;20035;-69
2021/10/19 08:31:28;;;;;;;32.53;15.93;;;;;;;18.65;78.85;101640.03;4933257;28;20475;-69
2021/10/19 08:33:54;;;;;;;31.42;16.27;;;;;;;18.60;79.00;101640.03;4930716;28;20089;-69
2021/10/19 08:36:20;;;;;;;35.38;15.38;;;;;;;18.68;78.74;101644.41;4935201;28;20054;-71
2021/10/19 08:38:46;;;;;;;33.45;16.33;;;;;;;18.61;78.91;101643.56;4904631;28;20575;-70
2021/10/19 08:41:12;;;;;;;29.88;15.45;;;;;;;18.73;78.70;101648.75;4926407;28;20339;-72
2021/10/19 08:43:38;;;;;;;28.63;15.57;;;;;;;18.62;79.18;101637.41;4924085;28;20392;-70
2021/10/19 08:46:06;;;;;;;33.90;16.98;;;;;;;18.75;78.81;101631.13;4933041;28;20913;-70
2021/10/19 08:48:32;;;;;;;27.20;15.68;;;;;;;18.81;78.69;101643.41;4927807;28;20073;-69
2021/10/19 08:50:58;;;;;;;39.90;18.13;;;;;;;18.88;78.52;101637.19;4924203;28;20082;-70
2021/10/19 08:53:24;;;;;;;35.38;17.48;;;;;;;18.88;78.48;101638.06;4941008;28;20077;-70
2021/10/19 08:55:49;;;;;;;32.03;16.98;;;;;;;18.86;78.89;101639.84;4929023;28;20520;-71
2021/10/19 08:58:15;;;;;;;32.15;15.88;;;;;;;18.88;78.75;101634.56;4934179;28;20283;-69
2021/10/19 09:00:40;;;;;;;33.22;16.23;;;;;;;18.91;78.38;101634.50;4910155;28;20078;-69
2021/10/19 09:03:06;;;;;;;31.60;16.00;;;;;;;18.90;78.64;101638.06;4907563;28;20054;-70
2021/10/19 09:05:31;;;;;;;30.30;15.23;;;;;;;18.89;78.56;101633.66;4932718;28;20474;-70
2021/10/19 09:08:09;;;;;;;29.52;14.93;;;;;;;18.87;78.89;101643.34;4928323;28;20055;-70
2021/10/19 09:10:37;;;;;;;28.98;15.02;;;;;;;18.96;78.40;101649.47;4922758;28;20274;-70
2021/10/19 09:13:08;;;;;;;28.75;14.70;;;;;;;18.84;78.89;101649.56;4918876;28;20109;-70
2021/10/19 09:15:35;;;;;;;31.25;15.18;;;;;;;18.91;78.67;101653.00;4925826;28;20121;-70
2021/10/19 09:18:05;;;;;;;27.60;14.30;;;;;;;18.97;78.68;101650.31;4915558;28;20082;-70
2021/10/19 09:20:42;;;;;;;24.92;13.23;;;;;;;19.02;78.47;101653.81;4933482;28;20220;-69
2021/10/19 09:23:10;;;;;;;30.88;15.15;;;;;;;19.02;78.46;101659.09;4917455;28;20068;-69
2021/10/19 09:25:37;;;;;;;33.33;15.32;;;;;;;19.12;78.45;101657.22;4906558;28;20043;-71
2021/10/19 09:28:04;;;;;;;27.45;14.35;;;;;;;19.17;78.41;101651.00;4930773;28;20141;-72
2021/10/19 09:30:40;;;;;;;31.70;15.15;;;;;;;19.15;78.40;101654.56;4922167;28;20042;-70
2021/10/19 09:33:07;;;;;;;29.33;14.82;;;;;;;18.97;78.86;101651.19;4921336;28;20053;-70
2021/10/19 09:35:37;;;;;;;29.67;14.82;;;;;;;19.17;78.60;101653.66;4898343;28;20074;-71
2021/10/19 09:38:09;;;;;;;31.58;14.95;;;;;;;19.26;78.33;101660.63;4925913;28;20053;-71
2021/10/19 09:40:45;;;;;;;26.20;13.70;;;;;;;19.20;78.43;101656.28;4930488;28;20101;-70
2021/10/19 09:43:16;;;;;;;26.63;13.95;;;;;;;19.29;78.29;101661.47;4918343;28;20041;-70
2021/10/19 09:45:43;;;;;;;27.33;13.70;;;;;;;19.30;78.32;101654.41;4913138;28;20203;-71
2021/10/19 09:48:13;;;;;;;24.27;13.02;;;;;;;19.33;78.41;101664.97;4930504;28;20039;-71
2021/10/19 09:50:38;;;;;;;20.30;11.85;;;;;;;19.36;78.45;101647.28;4925422;28;20114;-69
2021/10/19 09:53:04;;;;;;;23.42;12.00;;;;;;;19.22;79.21;101650.97;4894943;28;21078;-71
2021/10/19 09:55:32;;;;;;;21.67;11.85;;;;;;;19.47;78.47;101651.63;4928437;28;20108;-70
2021/10/19 09:57:57;;;;;;;20.85;11.65;;;;;;;19.60;78.38;101643.53;4908774;28;20472;-71
2021/10/19 10:00:23;;;;;;;19.20;11.80;;;;;;;19.60;78.54;101645.31;4929369;28;20034;-70
2021/10/19 10:02:51;;;;;;;18.15;10.68;;;;;;;19.82;77.79;101645.03;4930545;28;20050;-70
2021/10/19 10:05:17;;;;;;;17.98;11.10;;;;;;;19.92;77.47;101644.91;4932466;28;20055;-70
2021/10/19 10:07:44;;;;;;;18.17;11.00;;;;;;;19.90;77.57;101647.56;4917525;28;20498;-70
2021/10/19 10:10:12;;;;;;;20.10;11.02;;;;;;;19.91;77.45;101651.09;4907865;28;20519;-70
2021/10/19 10:12:37;;;;;;;18.75;10.80;;;;;;;19.88;77.16;101644.09;4909061;28;20492;-70
2021/10/19 10:15:03;;;;;;;16.65;10.50;;;;;;;19.82;77.41;101649.47;4924807;28;20046;-71
2021/10/19 10:17:29;;;;;;;19.25;11.48;;;;;;;19.80;77.54;101646.81;4922373;28;20030;-70
2021/10/19 10:20:05;;;;;;;19.63;11.50;;;;;;;19.89;77.45;101651.13;4938963;28;20038;-70
2021/10/19 10:22:31;;;;;;;17.90;10.65;;;;;;;19.86;77.27;101653.81;4929139;28;20100;-68
2021/10/19 10:25:04;;;;;;;16.63;10.30;;;;;;;19.91;76.98;101656.41;4896924;28;20412;-68
2021/10/19 10:27:30;;;;;;;17.20;9.93;;;;;;;19.86;77.44;101656.47;4922625;28;20547;-69
2021/10/19 10:29:55;;;;;;;16.15;9.85;;;;;;;19.94;77.25;101659.03;4912265;28;20290;-69
2021/10/19 10:32:27;;;;;;;16.17;9.77;;;;;;;19.88;77.11;101649.38;4918127;28;20485;-70
2021/10/19 10:35:12;;;;;;;13.20;8.65;;;;;;;19.83;77.67;101652.06;4903332;28;20046;-64
2021/10/19 10:37:39;;;;;;;14.88;9.00;;;;;;;19.96;77.36;101649.25;4911989;28;20072;-70
2021/10/19 10:40:07;;;;;;;14.10;9.00;;;;;;;20.41;76.34;101653.97;4924489;28;20042;-70
2021/10/19 10:42:36;;;;;;;15.63;9.30;;;;;;;20.50;76.16;101651.16;4926416;28;20508;-70
2021/10/19 10:45:02;;;;;;;15.40;8.65;;;;;;;20.48;75.67;101650.34;4917339;28;20039;-70
2021/10/19 10:47:28;;;;;;;12.95;8.30;;;;;;;20.35;75.71;101648.78;4935205;28;20066;-70
2021/10/19 10:49:53;;;;;;;11.82;7.57;;;;;;;20.34;75.72;101644.38;4913377;28;20078;-70
2021/10/19 10:52:19;;;;;;;12.52;8.10;;;;;;;20.30;75.73;101645.28;4941620;28;20053;-69
2021/10/19 10:54:52;;;;;;;14.23;8.35;;;;;;;20.20;76.45;101644.53;4930276;28;20162;-67
2021/10/19 10:57:17;;;;;;;13.47;8.77;;;;;;;20.22;76.51;101645.38;4921987;28;20139;-70
2021/10/19 10:59:51;;;;;;;12.30;7.80;;;;;;;20.23;76.37;101638.31;4928011;28;20511;-71
2021/10/19 11:02:16;;;;;;;12.27;8.07;;;;;;;20.02;77.01;101638.59;4919583;28;20043;-71
2021/10/19 11:04:50;;;;;;;12.02;7.88;;;;;;;19.95;77.33;101645.75;4932344;28;20399;-70